createdAt,value
2022-10-19T00:01:23.285Z,10.40
2022-10-19T00:05:12.787Z,12.10
2022-10-19T00:08:38.366Z,10.30
2022-10-19T00:12:16.117Z,10.10
2022-10-19T00:15:53.221Z,11.40
2022-10-19T00:19:31.200Z,12.20
2022-10-19T00:23:08.953Z,10.30
2022-10-19T00:26:46.529Z,10.30
2022-10-19T00:30:24.182Z,9.80
2022-10-19T00:34:01.916Z,9.00
2022-10-19T00:37:39.428Z,10.10
2022-10-19T00:41:18.993Z,10.60
2022-10-19T00:45:00.293Z,11.00
2022-10-19T00:48:37.973Z,10.50
2022-10-19T00:52:20.019Z,9.90
2022-10-19T00:55:59.237Z,10.00
2022-10-19T00:59:38.796Z,10.60
2022-10-19T01:03:16.487Z,10.20
2022-10-19T01:06:54.733Z,10.30
2022-10-19T01:11:07.851Z,10.20
2022-10-19T01:14:59.829Z,10.00
2022-10-19T01:19:06.037Z,11.10
2022-10-19T01:23:10.704Z,12.00
2022-10-19T01:27:31.478Z,11.50
2022-10-19T01:31:19.291Z,10.00
2022-10-19T01:35:03.635Z,11.40
2022-10-19T01:38:54.710Z,12.00
2022-10-19T01:42:43.779Z,12.00
2022-10-19T01:46:28.867Z,11.20
2022-10-19T01:50:18.880Z,12.90
2022-10-19T01:53:59.917Z,13.70
2022-10-19T01:57:48.265Z,13.70
2022-10-19T02:01:29.510Z,12.70
2022-10-19T02:05:08.729Z,13.30
2022-10-19T02:08:49.148Z,13.80
2022-10-19T02:12:29.418Z,13.90
2022-10-19T02:16:14.059Z,13.60
2022-10-19T02:19:51.495Z,12.60
2022-10-19T02:23:49.432Z,13.90
2022-10-19T02:27:09.083Z,13.40
2022-10-19T02:30:46.216Z,14.40
2022-10-19T02:34:24.436Z,13.20
2022-10-19T02:38:05.001Z,13.80
2022-10-19T02:41:49.897Z,15.60
2022-10-19T02:45:30.226Z,26.90
2022-10-19T02:49:09.875Z,34.20
2022-10-19T02:52:47.063Z,19.20
2022-10-19T02:56:25.199Z,15.50
2022-10-19T03:00:03.916Z,13.90
2022-10-19T03:03:41.298Z,14.60
2022-10-19T03:07:20.297Z,14.80
2022-10-19T03:11:01.076Z,16.60
2022-10-19T03:14:57.396Z,15.00
2022-10-19T03:18:17.706Z,14.70
2022-10-19T03:21:54.970Z,15.00
2022-10-19T03:25:32.776Z,13.80
2022-10-19T03:29:09.972Z,14.40
2022-10-19T03:32:48.054Z,13.20
2022-10-19T03:36:31.198Z,11.70
2022-10-19T03:40:09.338Z,10.80
2022-10-19T03:43:47.259Z,10.00
2022-10-19T03:47:24.316Z,11.70
2022-10-19T03:51:03.378Z,11.30
2022-10-19T03:54:40.900Z,11.40
2022-10-19T03:58:18.419Z,10.20
2022-10-19T04:01:56.081Z,10.90
2022-10-19T04:05:33.705Z,11.10
2022-10-19T04:09:16.119Z,11.60
2022-10-19T04:12:53.994Z,9.60
2022-10-19T04:16:33.103Z,7.90
2022-10-19T04:20:10.718Z,8.50
2022-10-19T04:23:48.680Z,8.30
2022-10-19T04:27:25.712Z,8.00
2022-10-19T04:31:05.470Z,7.80
2022-10-19T04:34:42.561Z,6.60
2022-10-19T04:38:20.294Z,6.00
2022-10-19T04:41:57.989Z,4.90
2022-10-19T04:45:36.233Z,5.90
2022-10-19T04:49:16.416Z,6.20
2022-10-19T04:52:56.788Z,6.20
2022-10-19T04:56:34.045Z,5.80
2022-10-19T05:00:12.733Z,5.80
2022-10-19T05:07:37.880Z,5.20
2022-10-19T05:11:15.711Z,5.10
2022-10-19T05:14:52.827Z,5.80
2022-10-19T05:18:33.903Z,4.80
2022-10-19T05:22:12.953Z,4.90
2022-10-19T05:25:50.429Z,5.10
2022-10-19T05:29:28.736Z,5.10
2022-10-19T05:33:05.952Z,5.40
2022-10-19T05:37:02.669Z,6.20
2022-10-19T05:40:21.531Z,4.90
2022-10-19T05:44:00.317Z,5.70
2022-10-19T05:47:58.643Z,5.70
2022-10-19T05:51:18.484Z,5.50
2022-10-19T05:54:56.725Z,5.20
2022-10-19T05:58:34.096Z,6.50
2022-10-19T06:02:14.560Z,5.20
2022-10-19T06:05:52.630Z,6.30
2022-10-19T06:09:35.390Z,23.70
2022-10-19T06:13:15.661Z,5.00
2022-10-19T06:17:11.654Z,4.20
2022-10-19T06:20:43.777Z,3.90
2022-10-19T06:24:23.157Z,3.60
2022-10-19T06:28:02.520Z,4.50
2022-10-19T06:31:39.925Z,4.60
2022-10-19T06:35:18.134Z,3.30
2022-10-19T06:38:57.184Z,4.80
2022-10-19T06:42:34.418Z,4.70
2022-10-19T06:46:17.674Z,4.50
2022-10-19T06:49:54.583Z,6.20
2022-10-19T06:53:34.706Z,3.10
2022-10-19T06:57:12.327Z,2.90
2022-10-19T07:00:59.088Z,3.00
2022-10-19T07:04:35.890Z,3.60
2022-10-19T07:08:14.196Z,3.50
2022-10-19T07:11:52.680Z,3.80
2022-10-19T07:15:32.494Z,2.80
2022-10-19T07:19:09.133Z,3.00
2022-10-19T07:22:47.277Z,2.50
2022-10-19T07:26:28.389Z,3.50
2022-10-19T07:30:05.930Z,3.20
2022-10-19T07:33:43.989Z,2.90
2022-10-19T07:37:21.111Z,2.80
2022-10-19T07:41:13.772Z,4.10
2022-10-19T07:44:51.757Z,2.90
2022-10-19T07:48:31.757Z,2.60
2022-10-19T07:52:16.269Z,3.50
2022-10-19T07:55:56.345Z,2.90
2022-10-19T07:59:39.786Z,2.00
2022-10-19T08:07:36.192Z,2.80
2022-10-19T08:10:54.296Z,2.90
2022-10-19T08:14:34.061Z,2.90
2022-10-19T08:18:19.559Z,2.90
2022-10-19T08:21:49.127Z,2.40
2022-10-19T08:25:34.439Z,2.90
2022-10-19T08:29:06.769Z,4.60
2022-10-19T08:33:05.216Z,3.60
2022-10-19T08:36:24.735Z,3.00
2022-10-19T08:40:02.324Z,6.20
2022-10-19T08:43:54.181Z,4.00
2022-10-19T08:47:39.054Z,2.70
2022-10-19T08:51:37.281Z,2.50
2022-10-19T08:55:01.459Z,3.90
2022-10-19T08:59:01.416Z,3.90
2022-10-19T09:02:49.785Z,2.60
2022-10-19T09:06:32.609Z,2.50
2022-10-19T09:10:15.233Z,3.40
2022-10-19T09:14:16.528Z,2.90
2022-10-19T09:17:49.567Z,2.70
2022-10-19T09:21:15.996Z,3.30
2022-10-19T09:24:58.781Z,2.90
2022-10-19T09:28:43.351Z,3.40
2022-10-19T09:32:26.352Z,2.50
2022-10-19T09:36:08.022Z,3.60
2022-10-19T09:40:07.160Z,3.00
2022-10-19T09:43:23.217Z,3.00
2022-10-19T09:47:20.921Z,2.60
2022-10-19T09:51:10.796Z,1.90
2022-10-19T09:54:59.322Z,1.60
2022-10-19T09:58:36.919Z,2.90
2022-10-19T10:02:36.760Z,1.70
2022-10-19T10:05:52.864Z,2.30
2022-10-19T10:09:30.904Z,2.60
2022-10-19T10:13:19.088Z,14.10
2022-10-19T10:17:22.321Z,3.30
2022-10-19T10:20:34.675Z,2.00
2022-10-19T10:24:11.671Z,2.00
2022-10-19T10:28:01.992Z,1.90
2022-10-19T10:31:38.970Z,3.00
2022-10-19T10:35:30.531Z,3.00
2022-10-19T10:39:17.699Z,1.90
2022-10-19T10:42:58.958Z,1.30
2022-10-19T10:46:52.063Z,1.30
2022-10-19T10:50:36.325Z,1.20
2022-10-19T10:54:24.452Z,1.50
2022-10-19T10:57:54.787Z,1.30
2022-10-19T11:01:43.145Z,1.40
2022-10-19T11:05:45.129Z,1.20
2022-10-19T11:09:31.882Z,2.40
2022-10-19T11:13:18.840Z,2.60
2022-10-19T11:17:27.936Z,1.90
2022-10-19T11:20:39.702Z,1.00
2022-10-19T11:24:47.840Z,2.80
2022-10-19T11:28:30.663Z,5.10
2022-10-19T11:32:51.090Z,1.90
2022-10-19T11:35:53.441Z,0.80
2022-10-19T11:39:58.522Z,1.40
2022-10-19T11:43:53.597Z,1.80
2022-10-19T11:48:33.198Z,1.40
2022-10-19T11:51:46.288Z,2.00
2022-10-19T11:55:17.611Z,1.70
2022-10-19T11:59:02.582Z,2.40
2022-10-19T12:03:13.640Z,1.30
2022-10-19T12:07:23.446Z,1.50
2022-10-19T12:11:34.118Z,1.60
2022-10-19T12:15:24.104Z,2.60
2022-10-19T12:19:25.208Z,5.40
2022-10-19T12:23:01.847Z,8.50
2022-10-19T12:30:18.564Z,44.30
2022-10-19T12:33:52.312Z,22.20
2022-10-19T12:37:45.009Z,6.10
2022-10-19T12:42:04.464Z,7.70
2022-10-19T12:46:08.113Z,9.40
2022-10-19T12:49:56.229Z,3.90
2022-10-19T12:53:41.220Z,2.90
2022-10-19T12:57:39.773Z,2.50
2022-10-19T13:01:21.534Z,7.70
2022-10-19T13:04:36.697Z,3.90
2022-10-19T13:08:28.111Z,3.60
2022-10-19T13:12:19.450Z,3.00
2022-10-19T13:15:59.446Z,7.30
2022-10-19T13:19:39.905Z,5.30
2022-10-19T13:23:29.629Z,4.30
2022-10-19T13:27:06.698Z,2.60
2022-10-19T13:30:46.909Z,2.20
2022-10-19T13:34:25.693Z,1.90
2022-10-19T13:38:12.651Z,5.80
2022-10-19T13:41:52.599Z,4.00
2022-10-19T13:46:14.963Z,4.00
2022-10-19T13:50:00.025Z,4.40
2022-10-19T13:53:09.826Z,3.50
2022-10-19T13:56:51.273Z,3.60
2022-10-19T14:00:59.263Z,3.90
2022-10-19T14:05:16.323Z,10.10
2022-10-19T14:09:29.944Z,2.90
2022-10-19T14:13:26.011Z,3.50
2022-10-19T14:16:58.368Z,3.50
2022-10-19T14:21:03.899Z,17.30
2022-10-19T14:24:35.307Z,13.60
2022-10-19T14:28:34.609Z,33.20
2022-10-19T14:31:49.977Z,14.20
2022-10-19T14:35:40.138Z,12.20
2022-10-19T14:39:33.336Z,7.30
2022-10-19T14:43:21.425Z,5.50
2022-10-19T14:47:02.302Z,5.40
2022-10-19T14:50:46.780Z,5.70
2022-10-19T14:54:47.753Z,6.30
2022-10-19T14:58:02.933Z,8.80
2022-10-19T15:01:50.054Z,5.60
2022-10-19T15:05:35.975Z,4.80
2022-10-19T15:09:47.402Z,6.30
2022-10-19T15:13:29.117Z,11.30
2022-10-19T15:17:34.150Z,9.20
2022-10-19T15:21:33.397Z,6.90
2022-10-19T15:25:07.000Z,11.80
2022-10-19T15:28:44.234Z,17.50
2022-10-19T15:32:25.112Z,8.40
2022-10-19T15:36:20.206Z,5.70
2022-10-19T15:39:58.879Z,7.70
2022-10-19T15:43:43.787Z,5.40
2022-10-19T15:47:24.444Z,5.80
2022-10-19T15:51:01.386Z,9.60
2022-10-19T15:54:38.889Z,8.70
2022-10-19T15:58:18.597Z,17.20
2022-10-19T16:01:56.338Z,25.80
2022-10-19T16:05:36.455Z,11.50
2022-10-19T16:09:22.085Z,6.80
2022-10-19T16:12:59.141Z,6.50
2022-10-19T16:16:38.576Z,11.10
2022-10-19T16:20:18.495Z,13.60
2022-10-19T16:24:14.596Z,12.20
2022-10-19T16:27:34.071Z,9.00
2022-10-19T16:31:11.521Z,9.40
2022-10-19T16:34:49.045Z,6.10
2022-10-19T16:38:30.081Z,7.60
2022-10-19T16:42:07.438Z,11.10
2022-10-19T16:45:46.834Z,17.20
2022-10-19T16:49:23.553Z,20.30
2022-10-19T16:53:07.209Z,20.50
2022-10-19T16:56:48.097Z,21.20
2022-10-19T17:00:25.201Z,35.10
2022-10-19T17:04:24.344Z,35.80
2022-10-19T17:09:02.686Z,28.60
2022-10-19T17:12:18.490Z,27.30
2022-10-19T17:15:53.591Z,18.10
2022-10-19T17:19:27.622Z,18.10
2022-10-19T17:23:18.818Z,19.40
2022-10-19T17:26:58.886Z,15.20
2022-10-19T17:30:33.089Z,20.00
2022-10-19T17:34:02.341Z,17.80
2022-10-19T17:38:15.267Z,15.70
2022-10-19T17:41:32.589Z,19.60
2022-10-19T17:45:11.469Z,24.30
2022-10-19T17:48:51.453Z,21.50
2022-10-19T17:52:28.823Z,20.20
2022-10-19T17:56:09.033Z,29.70
2022-10-19T17:59:52.459Z,24.30
2022-10-19T18:03:32.983Z,19.90
2022-10-19T18:07:10.379Z,19.70
2022-10-19T18:10:49.342Z,16.50
2022-10-19T18:14:29.619Z,12.50
2022-10-19T18:18:08.903Z,12.50
2022-10-19T18:21:48.114Z,11.40
2022-10-19T18:25:36.141Z,11.40
2022-10-19T18:29:26.136Z,12.40
2022-10-19T18:33:03.772Z,11.30
2022-10-19T18:36:41.903Z,9.80
2022-10-19T18:40:19.169Z,8.40
2022-10-19T18:44:06.102Z,7.60
2022-10-19T18:47:45.022Z,6.90
2022-10-19T18:51:43.683Z,6.50
2022-10-19T18:55:00.937Z,6.30
2022-10-19T18:58:38.702Z,6.50
2022-10-19T19:02:22.540Z,5.60
2022-10-19T19:06:09.107Z,10.90
2022-10-19T19:09:48.072Z,49.60
2022-10-19T19:13:24.905Z,6.80
2022-10-19T19:17:04.319Z,6.20
2022-10-19T19:20:43.535Z,8.40
2022-10-19T19:24:32.063Z,6.90
2022-10-19T19:27:59.125Z,6.00
2022-10-19T19:31:39.862Z,5.10
2022-10-19T19:35:19.064Z,6.50
2022-10-19T19:38:57.348Z,5.50
2022-10-19T19:42:35.446Z,6.50
2022-10-19T19:46:16.065Z,4.90
2022-10-19T19:49:54.410Z,4.60
2022-10-19T19:53:31.785Z,5.00
2022-10-19T19:57:11.796Z,12.60
2022-10-19T20:00:48.817Z,5.80
2022-10-19T20:04:26.852Z,6.80
2022-10-19T20:08:23.303Z,5.80
2022-10-19T20:11:42.867Z,4.90
2022-10-19T20:15:20.357Z,5.20
2022-10-19T20:19:08.563Z,4.50
2022-10-19T20:22:47.754Z,4.50
2022-10-19T20:26:25.324Z,4.20
2022-10-19T20:30:02.501Z,6.60
2022-10-19T20:33:41.925Z,5.50
2022-10-19T20:37:19.734Z,6.60
2022-10-19T20:40:56.646Z,5.60
2022-10-19T20:44:35.109Z,10.30
2022-10-19T20:48:12.212Z,10.10
2022-10-19T20:51:51.033Z,7.80
2022-10-19T20:55:29.625Z,7.50
2022-10-19T20:59:13.769Z,7.50
2022-10-19T21:02:51.015Z,28.40
2022-10-19T21:06:49.924Z,33.10
2022-10-19T21:10:06.637Z,27.40
2022-10-19T21:13:47.155Z,13.50
2022-10-19T21:17:24.464Z,9.60
2022-10-19T21:21:01.835Z,7.50
2022-10-19T21:24:40.230Z,5.30
2022-10-19T21:28:17.438Z,5.30
2022-10-19T21:32:13.490Z,5.20
2022-10-19T21:35:36.858Z,5.00
2022-10-19T21:39:14.789Z,5.50
2022-10-19T21:42:51.990Z,7.30
2022-10-19T21:46:30.602Z,5.90
2022-10-19T21:50:10.503Z,6.40
2022-10-19T21:53:47.447Z,7.40
2022-10-19T21:57:25.310Z,8.00
2022-10-19T22:01:06.814Z,8.00
2022-10-19T22:04:46.102Z,8.00
2022-10-19T22:08:23.114Z,8.60
2022-10-19T22:12:01.401Z,7.80
2022-10-19T22:15:39.800Z,8.70
2022-10-19T22:19:16.947Z,9.30
2022-10-19T22:22:55.068Z,9.80
2022-10-19T22:26:42.000Z,14.10
2022-10-19T22:30:21.437Z,9.70
2022-10-19T22:34:00.641Z,9.20
2022-10-19T22:37:37.803Z,10.10
2022-10-19T22:41:15.602Z,10.80
2022-10-19T22:44:53.422Z,10.90
2022-10-19T22:48:50.417Z,24.50
2022-10-19T22:52:10.398Z,23.40
2022-10-19T22:55:47.956Z,16.30
2022-10-19T22:59:24.981Z,15.40
2022-10-19T23:03:03.500Z,11.70
2022-10-19T23:06:41.224Z,11.60
2022-10-19T23:10:19.378Z,10.20
2022-10-19T23:13:56.165Z,9.00
2022-10-19T23:17:34.551Z,8.60
2022-10-19T23:21:13.256Z,8.80
2022-10-19T23:24:54.677Z,7.80
2022-10-19T23:28:35.801Z,8.20
2022-10-19T23:32:14.116Z,8.50
2022-10-19T23:35:51.182Z,11.20
2022-10-19T23:39:30.803Z,9.90
2022-10-19T23:43:07.809Z,8.90
2022-10-19T23:46:46.062Z,8.80
2022-10-19T23:50:25.553Z,7.70
2022-10-19T23:54:03.013Z,8.50
2022-10-19T23:57:41.785Z,9.30
